Time,TemperatureF,DewpointF,PressureIn,WindDirection,WindDirectionDegrees,WindSpeedMPH,WindSpeedGustMPH,Humidity,HourlyPrecipIn,Conditions,Clouds,dailyrainin,SoftwareType,DateUTC
2013-04-18 00:03:00,60.0,55.0,30.13,South,181,0.0,1.0,85,0.00,,,0.09,,2013-04-18 04:03:00,
2013-04-18 00:13:00,60.0,55.0,30.13,South,181,0.0,1.0,85,0.00,,,0.09,,2013-04-18 04:13:00,
2013-04-18 00:23:00,61.0,56.0,30.14,ESE,112,1.0,3.0,84,0.00,,,0.07,,2013-04-18 04:23:00,
2013-04-18 00:33:00,61.0,56.0,30.14,ESE,116,0.0,2.0,83,0.00,,,0.07,,2013-04-18 04:33:00,
2013-04-18 00:43:00,61.0,56.0,30.14,SE,137,0.0,1.0,83,0.00,,,0.07,,2013-04-18 04:43:00,
2013-04-18 00:53:00,61.0,56.0,30.14,SE,137,0.0,1.0,83,0.00,,,0.07,,2013-04-18 04:53:00,
2013-04-18 01:02:00,60.0,55.0,30.14,SE,137,0.0,1.0,84,0.00,,,0.07,,2013-04-18 05:02:00,
2013-04-18 01:12:00,60.0,55.0,30.14,SE,137,0.0,1.0,85,0.00,,,0.06,,2013-04-18 05:12:00,
2013-04-18 01:22:00,60.0,55.0,30.14,SE,137,0.0,1.0,85,0.00,,,0.06,,2013-04-18 05:22:00,
2013-04-18 01:33:00,60.0,55.0,30.14,SE,137,0.0,1.0,85,0.00,,,0.06,,2013-04-18 05:33:00,
2013-04-18 01:42:00,60.0,55.0,30.13,SE,141,0.0,1.0,85,0.00,,,0.06,,2013-04-18 05:42:00,
2013-04-18 01:52:00,60.0,55.0,30.13,SE,141,0.0,1.0,85,0.00,,,0.06,,2013-04-18 05:52:00,
2013-04-18 02:02:00,61.0,56.0,30.12,East,81,1.0,3.0,84,0.00,,,0.06,,2013-04-18 06:02:00,
2013-04-18 02:12:00,61.0,56.0,30.11,SE,127,0.0,2.0,83,0.00,,,0.06,,2013-04-18 06:12:00,
2013-04-18 02:22:00,61.0,56.0,30.11,SE,127,0.0,2.0,83,0.00,,,0.06,,2013-04-18 06:22:00,
2013-04-18 02:32:00,61.0,56.0,30.11,ESE,110,0.0,2.0,84,0.00,,,0.06,,2013-04-18 06:32:00,
2013-04-18 02:42:00,61.0,56.0,30.10,ESE,110,0.0,2.0,83,0.00,,,0.06,,2013-04-18 06:42:00,
2013-04-18 02:52:00,61.0,56.0,30.10,ESE,110,0.0,2.0,83,0.00,,,0.06,,2013-04-18 06:52:00,
2013-04-18 03:02:00,61.0,56.0,30.09,ESE,122,1.0,4.0,84,0.00,,,0.06,,2013-04-18 07:02:00,
2013-04-18 03:12:00,61.0,56.0,30.08,South,184,1.0,4.0,83,0.00,,,0.05,,2013-04-18 07:12:00,
2013-04-18 03:22:00,61.0,56.0,30.08,South,184,1.0,4.0,83,0.00,,,0.05,,2013-04-18 07:22:00,
2013-04-18 03:32:00,61.0,56.0,30.07,SE,137,0.0,3.0,83,0.00,,,0.05,,2013-04-18 07:32:00,
2013-04-18 03:42:00,61.0,56.0,30.06,South,173,1.0,4.0,84,0.00,,,0.05,,2013-04-18 07:42:00,
2013-04-18 03:53:00,61.0,56.0,30.06,South,173,1.0,4.0,84,0.00,,,0.05,,2013-04-18 07:53:00,
2013-04-18 04:02:00,62.0,57.0,30.06,SE,134,2.0,6.0,83,0.00,,,0.05,,2013-04-18 08:02:00,
2013-04-18 04:12:00,62.0,56.0,30.05,SE,142,3.0,9.0,82,0.01,,,0.06,,2013-04-18 08:12:00,
2013-04-18 04:22:00,62.0,56.0,30.05,SE,142,3.0,9.0,82,0.01,,,0.06,,2013-04-18 08:22:00,
2013-04-18 04:32:00,62.0,56.0,30.05,SSE,147,2.0,9.0,82,0.01,,,0.06,,2013-04-18 08:32:00,
2013-04-18 04:42:00,62.0,56.0,30.04,SE,141,2.0,9.0,82,0.01,,,0.06,,2013-04-18 08:42:00,
2013-04-18 04:52:00,62.0,56.0,30.04,SE,141,2.0,9.0,82,0.01,,,0.06,,2013-04-18 08:52:00,
2013-04-18 05:02:00,62.0,56.0,30.04,SSW,211,2.0,9.0,82,0.01,,,0.06,,2013-04-18 09:02:00,
2013-04-18 05:12:00,62.0,56.0,30.04,SE,129,1.0,4.0,82,0.00,,,0.05,,2013-04-18 09:12:00,
2013-04-18 05:22:00,62.0,56.0,30.04,SE,129,1.0,4.0,82,0.00,,,0.05,,2013-04-18 09:22:00,
2013-04-18 05:33:00,61.0,56.0,30.03,SE,131,1.0,3.0,83,0.00,,,0.05,,2013-04-18 09:33:00,
2013-04-18 05:43:00,61.0,56.0,30.03,ESE,120,0.0,3.0,84,0.00,,,0.05,,2013-04-18 09:43:00,
2013-04-18 05:53:00,61.0,56.0,30.03,ESE,120,0.0,3.0,84,0.00,,,0.05,,2013-04-18 09:53:00,
2013-04-18 06:03:00,61.0,56.0,30.04,ESE,119,0.0,1.0,83,0.00,,,0.05,,2013-04-18 10:03:00,
2013-04-18 06:12:00,61.0,56.0,30.04,ESE,119,0.0,1.0,83,0.00,,,0.05,,2013-04-18 10:12:00,
2013-04-18 06:23:00,60.0,56.0,30.04,ESE,119,0.0,0.0,86,0.00,,,0.04,,2013-04-18 10:23:00,
2013-04-18 06:32:00,59.0,55.0,30.04,ESE,123,0.0,1.0,87,0.00,,,0.04,,2013-04-18 10:32:00,
2013-04-18 06:42:00,59.0,55.0,30.04,ESE,123,0.0,1.0,87,0.00,,,0.04,,2013-04-18 10:42:00,
2013-04-18 06:53:00,60.0,56.0,30.05,ESE,115,0.0,1.0,87,0.00,,,0.04,,2013-04-18 10:53:00,
2013-04-18 07:02:00,60.0,56.0,30.05,ESE,115,0.0,0.0,86,0.00,,,0.04,,2013-04-18 11:02:00,
2013-04-18 07:12:00,61.0,56.0,30.06,ESE,115,0.0,1.0,85,0.00,,,0.04,,2013-04-18 11:12:00,
2013-04-18 07:22:00,61.0,56.0,30.06,ESE,115,0.0,1.0,85,0.00,,,0.04,,2013-04-18 11:22:00,
2013-04-18 07:32:00,61.0,56.0,30.06,ESE,115,0.0,0.0,84,0.00,,,0.04,,2013-04-18 11:32:00,
2013-04-18 07:42:00,61.0,56.0,30.06,ESE,115,0.0,0.0,84,0.00,,,0.04,,2013-04-18 11:42:00,
2013-04-18 07:52:00,62.0,57.0,30.06,ESE,115,0.0,2.0,84,0.00,,,0.04,,2013-04-18 11:52:00,
2013-04-18 08:02:00,63.0,58.0,30.06,ESE,115,0.0,1.0,83,0.00,,,0.04,,2013-04-18 12:02:00,
2013-04-18 08:12:00,64.0,58.0,30.06,ESE,115,0.0,1.0,81,0.00,,,0.04,,2013-04-18 12:12:00,
2013-04-18 08:22:00,64.0,58.0,30.06,ESE,115,0.0,1.0,81,0.00,,,0.04,,2013-04-18 12:22:00,
2013-04-18 08:32:00,65.0,58.0,30.06,SE,129,1.0,4.0,78,0.00,,,0.04,,2013-04-18 12:32:00,
2013-04-18 08:42:00,65.0,58.0,30.06,SE,129,1.0,4.0,78,0.00,,,0.04,,2013-04-18 12:42:00,
2013-04-18 08:52:00,66.0,58.0,30.06,SE,145,1.0,4.0,76,0.00,,,0.04,,2013-04-18 12:52:00,
2013-04-18 09:02:00,67.0,59.0,30.06,East,86,2.0,4.0,76,0.00,,,0.04,,2013-04-18 13:02:00,
2013-04-18 09:12:00,69.0,60.0,30.05,SE,126,2.0,4.0,73,0.00,,,0.03,,2013-04-18 13:12:00,
2013-04-18 09:22:00,69.0,60.0,30.05,SE,126,2.0,4.0,73,0.00,,,0.03,,2013-04-18 13:22:00,
2013-04-18 09:32:00,70.0,60.0,30.05,SE,134,1.0,5.0,71,0.00,,,0.03,,2013-04-18 13:32:00,
2013-04-18 09:42:00,72.0,61.0,30.04,SW,232,2.0,7.0,68,0.00,,,0.03,,2013-04-18 13:42:00,
2013-04-18 09:53:00,72.0,61.0,30.04,SW,232,2.0,7.0,68,0.00,,,0.03,,2013-04-18 13:53:00,
2013-04-18 10:02:00,74.0,61.0,30.04,SE,130,2.0,6.0,63,0.00,,,0.03,,2013-04-18 14:02:00,
2013-04-18 10:12:00,75.0,61.0,30.04,SW,230,5.0,12.0,62,0.00,,,0.03,,2013-04-18 14:12:00,
2013-04-18 10:22:00,75.0,61.0,30.04,SW,230,5.0,12.0,62,0.00,,,0.03,,2013-04-18 14:22:00,
2013-04-18 10:32:00,75.0,61.0,30.03,WSW,254,3.0,12.0,62,0.00,,,0.03,,2013-04-18 14:32:00,
2013-04-18 10:43:00,76.0,61.0,30.03,West,275,3.0,16.0,60,0.00,,,0.03,,2013-04-18 14:43:00,
2013-04-18 10:52:00,76.0,61.0,30.03,West,275,3.0,16.0,60,0.00,,,0.03,,2013-04-18 14:52:00,
2013-04-18 11:03:00,76.0,60.0,30.02,WSW,253,5.0,14.0,58,0.00,,,0.03,,2013-04-18 15:03:00,
2013-04-18 11:12:00,76.0,60.0,30.02,WSW,253,5.0,14.0,58,0.00,,,0.03,,2013-04-18 15:12:00,
2013-04-18 11:22:00,78.0,61.0,30.02,West,261,6.0,11.0,56,0.00,,,0.03,,2013-04-18 15:22:00,
2013-04-18 11:33:00,78.0,62.0,30.02,SW,234,4.0,9.0,58,0.00,,,0.03,,2013-04-18 15:33:00,
2013-04-18 11:43:00,78.0,61.0,30.01,West,280,4.0,14.0,56,0.00,,,0.03,,2013-04-18 15:43:00,
2013-04-18 11:53:00,78.0,61.0,30.01,West,280,4.0,14.0,56,0.00,,,0.03,,2013-04-18 15:53:00,
2013-04-18 12:03:00,78.0,61.0,30.01,WSW,240,5.0,13.0,55,0.00,,,0.03,,2013-04-18 16:03:00,
2013-04-18 12:13:00,78.0,61.0,29.99,SW,216,5.0,12.0,55,0.00,,,0.03,,2013-04-18 16:13:00,
2013-04-18 12:23:00,78.0,61.0,29.99,SW,216,5.0,12.0,55,0.00,,,0.03,,2013-04-18 16:23:00,
2013-04-18 12:33:00,79.0,60.0,29.98,SE,144,5.0,12.0,52,0.00,,,0.03,,2013-04-18 16:33:00,
2013-04-18 12:43:00,80.0,63.0,29.97,NE,55,2.0,14.0,56,0.00,,,0.03,,2013-04-18 16:43:00,
2013-04-18 12:53:00,80.0,63.0,29.97,NE,55,2.0,14.0,56,0.00,,,0.03,,2013-04-18 16:53:00,
2013-04-18 13:03:00,79.0,61.0,29.96,South,170,1.0,11.0,55,0.00,,,0.03,,2013-04-18 17:03:00,
2013-04-18 13:12:00,80.0,59.0,29.96,SW,223,5.0,10.0,49,0.00,,,0.02,,2013-04-18 17:12:00,
2013-04-18 13:22:00,80.0,59.0,29.96,SW,223,5.0,10.0,49,0.00,,,0.02,,2013-04-18 17:22:00,
2013-04-18 13:33:00,82.0,62.0,29.94,SW,217,3.0,12.0,51,0.00,,,0.02,,2013-04-18 17:33:00,
2013-04-18 13:42:00,82.0,60.0,29.94,West,261,6.0,15.0,47,0.00,,,0.02,,2013-04-18 17:42:00,
2013-04-18 13:52:00,82.0,60.0,29.94,West,261,6.0,15.0,47,0.00,,,0.02,,2013-04-18 17:52:00,
2013-04-18 14:03:00,81.0,59.0,29.93,ESE,117,5.0,14.0,47,0.00,,,0.02,,2013-04-18 18:03:00,
2013-04-18 14:12:00,83.0,60.0,29.92,SW,234,2.0,12.0,46,0.00,,,0.02,,2013-04-18 18:12:00,
2013-04-18 14:23:00,83.0,60.0,29.92,SW,234,2.0,12.0,46,0.00,,,0.02,,2013-04-18 18:23:00,
2013-04-18 14:32:00,83.0,59.0,29.91,SSW,198,5.0,13.0,44,0.00,,,0.02,,2013-04-18 18:32:00,
2013-04-18 14:42:00,84.0,60.0,29.90,SW,231,3.0,9.0,45,0.00,,,0.02,,2013-04-18 18:42:00,
2013-04-18 14:52:00,84.0,60.0,29.90,SW,231,3.0,9.0,45,0.00,,,0.02,,2013-04-18 18:52:00,
2013-04-18 15:02:00,84.0,60.0,29.90,ENE,62,3.0,14.0,44,0.00,,,0.02,,2013-04-18 19:02:00,
2013-04-18 15:12:00,84.0,60.0,29.90,ENE,62,3.0,14.0,44,0.00,,,0.02,,2013-04-18 19:12:00,
2013-04-18 15:22:00,83.0,58.0,29.89,WSW,244,6.0,12.0,42,0.00,,,0.02,,2013-04-18 19:22:00,
2013-04-18 15:32:00,83.0,59.0,29.88,SSW,208,5.0,13.0,44,0.00,,,0.02,,2013-04-18 19:32:00,
2013-04-18 15:42:00,83.0,59.0,29.88,SSW,208,5.0,13.0,44,0.00,,,0.02,,2013-04-18 19:42:00,
2013-04-18 15:53:00,85.0,59.0,29.88,SSE,167,3.0,11.0,41,0.00,,,0.02,,2013-04-18 19:53:00,
2013-04-18 16:02:00,83.0,59.0,29.87,East,93,3.0,15.0,44,0.00,,,0.02,,2013-04-18 20:02:00,
2013-04-18 16:12:00,83.0,59.0,29.86,SE,140,4.0,12.0,44,0.00,,,0.02,,2013-04-18 20:12:00,
2013-04-18 16:22:00,83.0,59.0,29.86,SE,140,4.0,12.0,44,0.00,,,0.02,,2013-04-18 20:22:00,
2013-04-18 16:32:00,83.0,57.0,29.86,SW,214,2.0,9.0,41,0.00,,,0.02,,2013-04-18 20:32:00,
2013-04-18 16:42:00,83.0,57.0,29.86,WSW,238,6.0,13.0,41,0.00,,,0.02,,2013-04-18 20:42:00,
2013-04-18 16:52:00,83.0,57.0,29.86,WSW,238,6.0,13.0,41,0.00,,,0.02,,2013-04-18 20:52:00,
2013-04-18 17:02:00,83.0,58.0,29.85,SE,130,5.0,17.0,42,0.00,,,0.02,,2013-04-18 21:02:00,
2013-04-18 17:12:00,83.0,58.0,29.85,SE,129,4.0,18.0,42,0.00,,,0.02,,2013-04-18 21:12:00,
2013-04-18 17:22:00,83.0,58.0,29.85,SE,129,4.0,18.0,42,0.00,,,0.02,,2013-04-18 21:22:00,
2013-04-18 17:33:00,83.0,58.0,29.85,SE,126,2.0,11.0,43,0.00,,,0.02,,2013-04-18 21:33:00,
2013-04-18 17:43:00,83.0,58.0,29.84,ESE,117,7.0,15.0,42,0.00,,,0.02,,2013-04-18 21:43:00,
2013-04-18 17:53:00,83.0,58.0,29.84,ESE,117,7.0,15.0,42,0.00,,,0.02,,2013-04-18 21:53:00,
2013-04-18 18:02:00,82.0,57.0,29.84,SW,230,3.0,16.0,43,0.00,,,0.02,,2013-04-18 22:02:00,
2013-04-18 18:13:00,82.0,57.0,29.84,SW,236,6.0,19.0,43,0.00,,,0.02,,2013-04-18 22:13:00,
2013-04-18 18:23:00,82.0,57.0,29.84,SW,236,6.0,19.0,43,0.00,,,0.02,,2013-04-18 22:23:00,
2013-04-18 18:32:00,81.0,57.0,29.83,SSE,158,5.0,16.0,44,0.00,,,0.02,,2013-04-18 22:32:00,
2013-04-18 18:42:00,81.0,58.0,29.84,SE,131,3.0,14.0,45,0.00,,,0.02,,2013-04-18 22:42:00,
2013-04-18 18:52:00,81.0,58.0,29.84,SE,131,3.0,14.0,45,0.00,,,0.02,,2013-04-18 22:52:00,
2013-04-18 19:04:00,80.0,57.0,29.84,East,91,4.0,11.0,46,0.00,,,0.02,,2013-04-18 23:04:00,
2013-04-18 19:12:00,80.0,57.0,29.83,East,82,5.0,12.0,46,0.00,,,0.01,,2013-04-18 23:12:00,
2013-04-18 19:21:00,80.0,57.0,29.83,East,82,5.0,12.0,46,0.00,,,0.01,,2013-04-18 23:21:00,
2013-04-18 19:32:00,79.0,57.0,29.83,ESE,105,3.0,12.0,47,0.00,,,0.01,,2013-04-18 23:32:00,
2013-04-18 19:42:00,78.0,56.0,29.83,ESE,112,5.0,11.0,47,0.00,,,0.01,,2013-04-18 23:42:00,
2013-04-18 19:52:00,78.0,56.0,29.83,ESE,112,5.0,11.0,47,0.00,,,0.01,,2013-04-18 23:52:00,
2013-04-18 20:01:00,78.0,57.0,29.83,ESE,107,3.0,9.0,48,0.00,,,0.01,,2013-04-19 00:01:00,
2013-04-18 20:12:00,77.0,56.0,29.84,SSW,196,4.0,13.0,49,0.00,,,0.01,,2013-04-19 00:12:00,
2013-04-18 20:22:00,77.0,56.0,29.84,SSW,196,4.0,13.0,49,0.00,,,0.01,,2013-04-19 00:22:00,
2013-04-18 20:32:00,77.0,56.0,29.85,ENE,76,5.0,14.0,49,0.00,,,0.01,,2013-04-19 00:32:00,
2013-04-18 20:42:00,76.0,55.0,29.85,NE,49,4.0,13.0,49,0.00,,,0.01,,2013-04-19 00:42:00,
2013-04-18 20:52:00,76.0,55.0,29.85,NE,49,4.0,13.0,49,0.00,,,0.01,,2013-04-19 00:52:00,
2013-04-18 21:01:00,76.0,55.0,29.85,West,267,2.0,16.0,49,0.00,,,0.01,,2013-04-19 01:01:00,
2013-04-18 21:11:00,76.0,55.0,29.85,West,267,2.0,16.0,49,0.00,,,0.01,,2013-04-19 01:11:00,
2013-04-18 21:21:00,75.0,55.0,29.85,SE,133,5.0,13.0,49,0.00,,,0.01,,2013-04-19 01:21:00,
2013-04-18 21:32:00,75.0,55.0,29.85,East,98,8.0,17.0,49,0.00,,,0.01,,2013-04-19 01:32:00,
2013-04-18 21:42:00,74.0,54.0,29.85,SE,135,4.0,16.0,50,0.00,,,0.01,,2013-04-19 01:42:00,
2013-04-18 21:52:00,74.0,54.0,29.85,SE,135,4.0,16.0,50,0.00,,,0.01,,2013-04-19 01:52:00,
2013-04-18 22:02:00,74.0,54.0,29.86,ENE,74,3.0,13.0,50,0.00,,,0.01,,2013-04-19 02:02:00,
2013-04-18 22:11:00,74.0,54.0,29.86,ENE,74,3.0,13.0,50,0.00,,,0.01,,2013-04-19 02:11:00,
2013-04-18 22:21:00,74.0,54.0,29.86,ESE,109,3.0,11.0,50,0.00,,,0.01,,2013-04-19 02:21:00,
2013-04-18 22:32:00,73.0,54.0,29.85,SSE,167,3.0,13.0,52,0.00,,,0.01,,2013-04-19 02:32:00,
2013-04-18 22:42:00,73.0,55.0,29.85,SSE,157,5.0,17.0,53,0.00,,,0.01,,2013-04-19 02:42:00,
2013-04-18 22:52:00,73.0,55.0,29.85,SSE,157,5.0,17.0,53,0.00,,,0.01,,2013-04-19 02:52:00,
2013-04-18 23:01:00,72.0,54.0,29.85,NE,35,7.0,18.0,54,0.00,,,0.01,,2013-04-19 03:01:00,
2013-04-18 23:12:00,72.0,54.0,29.85,NE,35,7.0,18.0,54,0.00,,,0.01,,2013-04-19 03:12:00,
2013-04-18 23:22:00,72.0,54.0,29.84,SE,128,3.0,14.0,54,0.00,,,0.01,,2013-04-19 03:22:00,
2013-04-18 23:33:00,72.0,54.0,29.84,South,191,6.0,18.0,53,0.00,,,0.01,,2013-04-19 03:33:00,
2013-04-18 23:43:00,72.0,54.0,29.84,ESE,113,5.0,13.0,53,0.00,,,0.01,,2013-04-19 03:43:00,
2013-04-18 23:53:00,72.0,54.0,29.84,ESE,113,5.0,13.0,53,0.00,,,0.01,,2013-04-19 03:53:00,